sensor_id;sensor_type;location;lat;lon;timestamp;pressure;altitude;pressure_sealevel;temperature
15701;BMP180;7950;42.744;23.174;2023-08-01T00:00:28;94070.28;;;19.84
15701;BMP180;7950;42.744;23.174;2023-08-01T00:02:57;94071.06;;;19.93
15701;BMP180;7950;42.744;23.174;2023-08-01T00:05:27;94072.34;;;19.87
15701;BMP180;7950;42.744;23.174;2023-08-01T00:07:56;94063.56;;;19.95
15701;BMP180;7950;42.744;23.174;2023-08-01T00:10:24;94056.69;;;19.77
15701;BMP180;7950;42.744;23.174;2023-08-01T00:12:53;94055.28;;;19.71
15701;BMP180;7950;42.744;23.174;2023-08-01T00:15:21;94065.31;;;19.74
15701;BMP180;7950;42.744;23.174;2023-08-01T00:17:50;94064.97;;;19.84
15701;BMP180;7950;42.744;23.174;2023-08-01T00:20:18;94056.97;;;19.84
15701;BMP180;7950;42.744;23.174;2023-08-01T00:22:48;94061.69;;;19.70
15701;BMP180;7950;42.744;23.174;2023-08-01T00:25:18;94059.97;;;19.74
15701;BMP180;7950;42.744;23.174;2023-08-01T00:27:46;94058.88;;;19.83
15701;BMP180;7950;42.744;23.174;2023-08-01T00:30:15;94058.25;;;19.78
15701;BMP180;7950;42.744;23.174;2023-08-01T00:32:43;94061.22;;;19.59
15701;BMP180;7950;42.744;23.174;2023-08-01T00:35:12;94056.22;;;19.66
15701;BMP180;7950;42.744;23.174;2023-08-01T00:37:40;94063.59;;;19.61
15701;BMP180;7950;42.744;23.174;2023-08-01T00:40:11;94058.25;;;19.69
15701;BMP180;7950;42.744;23.174;2023-08-01T00:42:39;94058.56;;;19.59
15701;BMP180;7950;42.744;23.174;2023-08-01T00:45:10;94055.59;;;19.61
15701;BMP180;7950;42.744;23.174;2023-08-01T00:47:39;94059.53;;;19.55
15701;BMP180;7950;42.744;23.174;2023-08-01T00:50:08;94055.63;;;19.52
15701;BMP180;7950;42.744;23.174;2023-08-01T00:52:37;94049.97;;;19.45
15701;BMP180;7950;42.744;23.174;2023-08-01T00:55:07;94053.09;;;19.56
15701;BMP180;7950;42.744;23.174;2023-08-01T00:57:38;94043.41;;;19.60
15701;BMP180;7950;42.744;23.174;2023-08-01T01:00:08;94046.53;;;19.70
15701;BMP180;7950;42.744;23.174;2023-08-01T01:02:37;94045.75;;;19.53
15701;BMP180;7950;42.744;23.174;2023-08-01T01:05:07;94034.81;;;19.46
15701;BMP180;7950;42.744;23.174;2023-08-01T01:07:37;94042.78;;;19.46
15701;BMP180;7950;42.744;23.174;2023-08-01T01:10:07;94047.72;;;19.22
15701;BMP180;7950;42.744;23.174;2023-08-01T01:12:37;94032.25;;;19.07
15701;BMP180;7950;42.744;23.174;2023-08-01T01:15:07;94029.25;;;19.00
15701;BMP180;7950;42.744;23.174;2023-08-01T01:17:36;94029.88;;;18.88
15701;BMP180;7950;42.744;23.174;2023-08-01T01:20:05;94033.59;;;18.79
15701;BMP180;7950;42.744;23.174;2023-08-01T01:22:37;94028.09;;;18.67
15701;BMP180;7950;42.744;23.174;2023-08-01T01:25:10;94024.81;;;18.61
15701;BMP180;7950;42.744;23.174;2023-08-01T01:27:39;94022.16;;;18.70
15701;BMP180;7950;42.744;23.174;2023-08-01T01:30:09;94027.75;;;18.60
15701;BMP180;7950;42.744;23.174;2023-08-01T01:32:38;94019.63;;;18.56
15701;BMP180;7950;42.744;23.174;2023-08-01T01:35:07;94015.41;;;18.55
15701;BMP180;7950;42.744;23.174;2023-08-01T01:37:37;94012.78;;;18.64
15701;BMP180;7950;42.744;23.174;2023-08-01T01:40:07;94013.22;;;18.66
15701;BMP180;7950;42.744;23.174;2023-08-01T01:42:36;94025.59;;;18.62
15701;BMP180;7950;42.744;23.174;2023-08-01T01:45:06;94022.59;;;18.55
15701;BMP180;7950;42.744;23.174;2023-08-01T01:47:34;94021.75;;;18.37
15701;BMP180;7950;42.744;23.174;2023-08-01T01:50:04;94027.59;;;18.26
15701;BMP180;7950;42.744;23.174;2023-08-01T01:52:36;94025.09;;;18.51
15701;BMP180;7950;42.744;23.174;2023-08-01T01:55:06;94027.31;;;18.58
15701;BMP180;7950;42.744;23.174;2023-08-01T01:57:35;94021.78;;;18.46
15701;BMP180;7950;42.744;23.174;2023-08-01T02:00:05;94029.97;;;18.58
15701;BMP180;7950;42.744;23.174;2023-08-01T02:02:37;94025.84;;;18.52
15701;BMP180;7950;42.744;23.174;2023-08-01T02:05:06;94029.59;;;18.51
15701;BMP180;7950;42.744;23.174;2023-08-01T02:07:36;94035.53;;;18.48
15701;BMP180;7950;42.744;23.174;2023-08-01T02:10:06;94035.56;;;18.56
15701;BMP180;7950;42.744;23.174;2023-08-01T02:12:35;94047.91;;;18.52
15701;BMP180;7950;42.744;23.174;2023-08-01T02:15:05;94046.81;;;18.53
15701;BMP180;7950;42.744;23.174;2023-08-01T02:17:33;94039.13;;;18.43
15701;BMP180;7950;42.744;23.174;2023-08-01T02:20:02;94037.59;;;18.59
15701;BMP180;7950;42.744;23.174;2023-08-01T02:22:31;94028.25;;;18.70
15701;BMP180;7950;42.744;23.174;2023-08-01T02:25:01;94031.38;;;18.72
15701;BMP180;7950;42.744;23.174;2023-08-01T02:27:29;94028.25;;;18.62
15701;BMP180;7950;42.744;23.174;2023-08-01T02:29:58;94041.19;;;18.55
15701;BMP180;7950;42.744;23.174;2023-08-01T02:32:26;94033.53;;;18.53
15701;BMP180;7950;42.744;23.174;2023-08-01T02:34:57;94036.97;;;18.54
15701;BMP180;7950;42.744;23.174;2023-08-01T02:37:25;94029.16;;;18.66
15701;BMP180;7950;42.744;23.174;2023-08-01T02:39:54;94026.84;;;18.64
15701;BMP180;7950;42.744;23.174;2023-08-01T02:42:24;94034.78;;;18.56
15701;BMP180;7950;42.744;23.174;2023-08-01T02:44:52;94036.47;;;18.43
15701;BMP180;7950;42.744;23.174;2023-08-01T02:47:21;94029.19;;;18.27
15701;BMP180;7950;42.744;23.174;2023-08-01T02:49:49;94033.44;;;18.06
15701;BMP180;7950;42.744;23.174;2023-08-01T02:52:18;94038.78;;;17.84
15701;BMP180;7950;42.744;23.174;2023-08-01T02:54:46;94037.88;;;17.66
15701;BMP180;7950;42.744;23.174;2023-08-01T02:57:15;94036.91;;;17.62
15701;BMP180;7950;42.744;23.174;2023-08-01T02:59:45;94045.00;;;17.57
15701;BMP180;7950;42.744;23.174;2023-08-01T03:02:14;94051.34;;;17.48
15701;BMP180;7950;42.744;23.174;2023-08-01T03:04:42;94038.97;;;17.43
15701;BMP180;7950;42.744;23.174;2023-08-01T03:07:13;94043.75;;;17.55
15701;BMP180;7950;42.744;23.174;2023-08-01T03:09:42;94050.97;;;17.63
15701;BMP180;7950;42.744;23.174;2023-08-01T03:12:11;94049.97;;;17.37
15701;BMP180;7950;42.744;23.174;2023-08-01T03:14:39;94052.25;;;17.30
15701;BMP180;7950;42.744;23.174;2023-08-01T03:17:10;94044.28;;;17.43
15701;BMP180;7950;42.744;23.174;2023-08-01T03:19:39;94039.91;;;17.61
15701;BMP180;7950;42.744;23.174;2023-08-01T03:22:07;94041.34;;;17.45
15701;BMP180;7950;42.744;23.174;2023-08-01T03:24:36;94039.28;;;17.42
15701;BMP180;7950;42.744;23.174;2023-08-01T03:27:05;94041.81;;;17.47
15701;BMP180;7950;42.744;23.174;2023-08-01T03:29:33;94041.84;;;17.33
15701;BMP180;7950;42.744;23.174;2023-08-01T03:32:03;94045.19;;;17.25
15701;BMP180;7950;42.744;23.174;2023-08-01T03:34:33;94044.88;;;17.05
15701;BMP180;7950;42.744;23.174;2023-08-01T03:37:02;94042.09;;;17.10
15701;BMP180;7950;42.744;23.174;2023-08-01T03:39:31;94040.16;;;17.02
15701;BMP180;7950;42.744;23.174;2023-08-01T03:41:59;94047.91;;;17.12
15701;BMP180;7950;42.744;23.174;2023-08-01T03:44:28;94046.94;;;17.08
15701;BMP180;7950;42.744;23.174;2023-08-01T03:46:56;94045.91;;;17.17
15701;BMP180;7950;42.744;23.174;2023-08-01T03:49:25;94051.47;;;17.29
15701;BMP180;7950;42.744;23.174;2023-08-01T03:51:55;94060.81;;;17.27
15701;BMP180;7950;42.744;23.174;2023-08-01T03:54:26;94059.91;;;17.31
15701;BMP180;7950;42.744;23.174;2023-08-01T03:56:55;94068.44;;;17.42
15701;BMP180;7950;42.744;23.174;2023-08-01T03:59:23;94066.63;;;17.51
15701;BMP180;7950;42.744;23.174;2023-08-01T04:01:53;94059.00;;;17.71
15701;BMP180;7950;42.744;23.174;2023-08-01T04:04:21;94050.78;;;17.81
15701;BMP180;7950;42.744;23.174;2023-08-01T04:06:50;94061.88;;;17.83
15701;BMP180;7950;42.744;23.174;2023-08-01T04:09:20;94062.19;;;17.82
15701;BMP180;7950;42.744;23.174;2023-08-01T04:11:48;94056.78;;;17.87
15701;BMP180;7950;42.744;23.174;2023-08-01T04:14:17;94059.63;;;17.99
15701;BMP180;7950;42.744;23.174;2023-08-01T04:16:45;94067.81;;;18.11
15701;BMP180;7950;42.744;23.174;2023-08-01T04:19:14;94070.72;;;18.23
15701;BMP180;7950;42.744;23.174;2023-08-01T04:21:45;94072.59;;;18.31
15701;BMP180;7950;42.744;23.174;2023-08-01T04:24:13;94076.13;;;18.40
15701;BMP180;7950;42.744;23.174;2023-08-01T04:26:43;94069.63;;;18.54
15701;BMP180;7950;42.744;23.174;2023-08-01T04:29:12;94061.41;;;18.73
15701;BMP180;7950;42.744;23.174;2023-08-01T04:31:42;94070.47;;;18.80
15701;BMP180;7950;42.744;23.174;2023-08-01T04:34:11;94064.09;;;18.90
15701;BMP180;7950;42.744;23.174;2023-08-01T04:36:39;94058.19;;;19.01
15701;BMP180;7950;42.744;23.174;2023-08-01T04:39:08;94064.47;;;19.14
15701;BMP180;7950;42.744;23.174;2023-08-01T04:41:37;94062.31;;;19.24
15701;BMP180;7950;42.744;23.174;2023-08-01T04:44:07;94065.00;;;19.33
15701;BMP180;7950;42.744;23.174;2023-08-01T04:46:35;94057.66;;;19.47
15701;BMP180;7950;42.744;23.174;2023-08-01T04:49:04;94058.56;;;19.59
15701;BMP180;7950;42.744;23.174;2023-08-01T04:51:32;94059.19;;;19.73
15701;BMP180;7950;42.744;23.174;2023-08-01T04:54:01;94067.63;;;19.84
15701;BMP180;7950;42.744;23.174;2023-08-01T04:56:29;94068.22;;;19.98
15701;BMP180;7950;42.744;23.174;2023-08-01T04:58:58;94064.00;;;20.14
15701;BMP180;7950;42.744;23.174;2023-08-01T05:01:30;94063.03;;;20.27
15701;BMP180;7950;42.744;23.174;2023-08-01T05:03:59;94059.88;;;20.33
15701;BMP180;7950;42.744;23.174;2023-08-01T05:06:27;94062.63;;;20.54
15701;BMP180;7950;42.744;23.174;2023-08-01T05:08:56;94059.28;;;20.65
15701;BMP180;7950;42.744;23.174;2023-08-01T05:11:24;94048.72;;;20.77
15701;BMP180;7950;42.744;23.174;2023-08-01T05:13:53;94055.50;;;20.75
15701;BMP180;7950;42.744;23.174;2023-08-01T05:16:21;94051.03;;;20.96
15701;BMP180;7950;42.744;23.174;2023-08-01T05:18:51;94055.91;;;21.14
15701;BMP180;7950;42.744;23.174;2023-08-01T05:21:20;94066.53;;;21.23
15701;BMP180;7950;42.744;23.174;2023-08-01T05:23:48;94069.25;;;21.35
15701;BMP180;7950;42.744;23.174;2023-08-01T05:26:17;94065.75;;;21.43
15701;BMP180;7950;42.744;23.174;2023-08-01T05:28:46;94064.41;;;21.57
15701;BMP180;7950;42.744;23.174;2023-08-01T05:31:14;94069.88;;;21.61
15701;BMP180;7950;42.744;23.174;2023-08-01T05:33:42;94073.75;;;21.72
15701;BMP180;7950;42.744;23.174;2023-08-01T05:36:13;94062.53;;;21.78
15701;BMP180;7950;42.744;23.174;2023-08-01T05:38:41;94064.22;;;21.83
15701;BMP180;7950;42.744;23.174;2023-08-01T05:41:10;94055.66;;;21.89
15701;BMP180;7950;42.744;23.174;2023-08-01T05:43:38;94056.16;;;22.03
15701;BMP180;7950;42.744;23.174;2023-08-01T05:46:06;94061.53;;;22.15
15701;BMP180;7950;42.744;23.174;2023-08-01T05:48:35;94053.47;;;22.24
15701;BMP180;7950;42.744;23.174;2023-08-01T05:51:04;94053.38;;;22.44
15701;BMP180;7950;42.744;23.174;2023-08-01T05:53:33;94050.06;;;22.47
15701;BMP180;7950;42.744;23.174;2023-08-01T05:56:02;94049.78;;;22.73
15701;BMP180;7950;42.744;23.174;2023-08-01T05:58:31;94052.22;;;22.78
15701;BMP180;7950;42.744;23.174;2023-08-01T06:01:00;94044.53;;;22.88
15701;BMP180;7950;42.744;23.174;2023-08-01T06:03:29;94043.84;;;23.03
15701;BMP180;7950;42.744;23.174;2023-08-01T06:05:57;94048.19;;;23.20
15701;BMP180;7950;42.744;23.174;2023-08-01T06:08:26;94043.25;;;23.34
15701;BMP180;7950;42.744;23.174;2023-08-01T06:10:56;94043.88;;;23.55
15701;BMP180;7950;42.744;23.174;2023-08-01T06:13:25;94044.75;;;23.71
15701;BMP180;7950;42.744;23.174;2023-08-01T06:15:54;94040.78;;;23.81
15701;BMP180;7950;42.744;23.174;2023-08-01T06:18:22;94040.19;;;23.87
15701;BMP180;7950;42.744;23.174;2023-08-01T06:20:51;94040.53;;;23.98
15701;BMP180;7950;42.744;23.174;2023-08-01T06:23:20;94037.88;;;24.13
15701;BMP180;7950;42.744;23.174;2023-08-01T06:25:48;94033.59;;;24.24
15701;BMP180;7950;42.744;23.174;2023-08-01T06:28:18;94030.34;;;24.46
15701;BMP180;7950;42.744;23.174;2023-08-01T06:30:47;94030.72;;;24.60
15701;BMP180;7950;42.744;23.174;2023-08-01T06:33:15;94032.44;;;24.68
15701;BMP180;7950;42.744;23.174;2023-08-01T06:35:44;94025.75;;;24.78
15701;BMP180;7950;42.744;23.174;2023-08-01T06:38:12;94033.66;;;24.86
15701;BMP180;7950;42.744;23.174;2023-08-01T06:40:41;94028.88;;;24.95
15701;BMP180;7950;42.744;23.174;2023-08-01T06:43:09;94018.47;;;25.09
15701;BMP180;7950;42.744;23.174;2023-08-01T06:45:39;94025.03;;;25.27
15701;BMP180;7950;42.744;23.174;2023-08-01T06:48:08;94025.88;;;25.31
15701;BMP180;7950;42.744;23.174;2023-08-01T06:50:36;94024.06;;;25.35
15701;BMP180;7950;42.744;23.174;2023-08-01T06:53:05;94015.72;;;25.40
15701;BMP180;7950;42.744;23.174;2023-08-01T06:55:33;94019.84;;;25.53
15701;BMP180;7950;42.744;23.174;2023-08-01T06:58:02;94014.06;;;25.70
15701;BMP180;7950;42.744;23.174;2023-08-01T07:00:31;94009.94;;;25.76
15701;BMP180;7950;42.744;23.174;2023-08-01T07:03:00;94008.25;;;25.87
15701;BMP180;7950;42.744;23.174;2023-08-01T07:05:29;94007.78;;;26.01
15701;BMP180;7950;42.744;23.174;2023-08-01T07:07:58;94006.13;;;26.15
15701;BMP180;7950;42.744;23.174;2023-08-01T07:10:26;94008.16;;;26.22
15701;BMP180;7950;42.744;23.174;2023-08-01T07:12:55;94002.88;;;26.06
15701;BMP180;7950;42.744;23.174;2023-08-01T07:15:23;93993.69;;;26.07
15701;BMP180;7950;42.744;23.174;2023-08-01T07:17:52;93996.22;;;26.19
15701;BMP180;7950;42.744;23.174;2023-08-01T07:20:22;93988.94;;;26.42
15701;BMP180;7950;42.744;23.174;2023-08-01T07:22:51;93992.38;;;26.62
15701;BMP180;7950;42.744;23.174;2023-08-01T07:25:19;93991.72;;;26.68
15701;BMP180;7950;42.744;23.174;2023-08-01T07:27:49;93989.13;;;26.75
15701;BMP180;7950;42.744;23.174;2023-08-01T07:30:18;93992.94;;;26.74
15701;BMP180;7950;42.744;23.174;2023-08-01T07:32:46;93991.56;;;26.84
15701;BMP180;7950;42.744;23.174;2023-08-01T07:35:15;93989.44;;;26.96
15701;BMP180;7950;42.744;23.174;2023-08-01T07:37:45;93986.81;;;27.00
15701;BMP180;7950;42.744;23.174;2023-08-01T07:40:14;93985.78;;;27.08
15701;BMP180;7950;42.744;23.174;2023-08-01T07:42:42;93980.28;;;27.01
15701;BMP180;7950;42.744;23.174;2023-08-01T07:45:11;93982.72;;;27.09
15701;BMP180;7950;42.744;23.174;2023-08-01T07:47:39;93984.53;;;27.24
15701;BMP180;7950;42.744;23.174;2023-08-01T07:50:08;93985.50;;;27.39
15701;BMP180;7950;42.744;23.174;2023-08-01T07:52:37;93984.88;;;27.52
15701;BMP180;7950;42.744;23.174;2023-08-01T07:55:08;93971.50;;;27.59
15701;BMP180;7950;42.744;23.174;2023-08-01T07:57:36;93977.97;;;27.55
15701;BMP180;7950;42.744;23.174;2023-08-01T08:00:07;93982.78;;;27.68
15701;BMP180;7950;42.744;23.174;2023-08-01T08:02:36;93973.19;;;27.71
15701;BMP180;7950;42.744;23.174;2023-08-01T08:05:06;93965.94;;;27.78
15701;BMP180;7950;42.744;23.174;2023-08-01T08:07:35;93961.50;;;27.89
15701;BMP180;7950;42.744;23.174;2023-08-01T08:10:07;93963.56;;;28.03
15701;BMP180;7950;42.744;23.174;2023-08-01T08:12:36;93953.56;;;28.03
15701;BMP180;7950;42.744;23.174;2023-08-01T08:15:06;93958.88;;;27.96
15701;BMP180;7950;42.744;23.174;2023-08-01T08:17:34;93956.16;;;27.96
15701;BMP180;7950;42.744;23.174;2023-08-01T08:20:04;93958.63;;;28.12
15701;BMP180;7950;42.744;23.174;2023-08-01T08:22:33;93949.25;;;27.99
15701;BMP180;7950;42.744;23.174;2023-08-01T08:25:02;93953.69;;;28.17
15701;BMP180;7950;42.744;23.174;2023-08-01T08:27:32;93954.56;;;28.28
15701;BMP180;7950;42.744;23.174;2023-08-01T08:30:00;93952.09;;;28.49
15701;BMP180;7950;42.744;23.174;2023-08-01T08:32:29;93950.56;;;28.52
15701;BMP180;7950;42.744;23.174;2023-08-01T08:34:57;93935.25;;;28.63
15701;BMP180;7950;42.744;23.174;2023-08-01T08:37:26;93939.84;;;28.59
15701;BMP180;7950;42.744;23.174;2023-08-01T08:39:54;93941.75;;;28.58
15701;BMP180;7950;42.744;23.174;2023-08-01T08:42:23;93940.19;;;28.54
15701;BMP180;7950;42.744;23.174;2023-08-01T08:44:56;93942.00;;;28.43
15701;BMP180;7950;42.744;23.174;2023-08-01T08:47:28;93928.69;;;28.20
15701;BMP180;7950;42.744;23.174;2023-08-01T08:49:59;93937.72;;;27.98
15701;BMP180;7950;42.744;23.174;2023-08-01T08:52:28;93938.13;;;28.04
15701;BMP180;7950;42.744;23.174;2023-08-01T08:54:57;93933.88;;;27.99
15701;BMP180;7950;42.744;23.174;2023-08-01T08:57:27;93926.94;;;27.98
15701;BMP180;7950;42.744;23.174;2023-08-01T08:59:59;93924.31;;;28.09
15701;BMP180;7950;42.744;23.174;2023-08-01T09:02:29;93914.41;;;28.20
15701;BMP180;7950;42.744;23.174;2023-08-01T09:04:57;93915.34;;;27.94
15701;BMP180;7950;42.744;23.174;2023-08-01T09:07:30;93915.50;;;28.12
15701;BMP180;7950;42.744;23.174;2023-08-01T09:10:01;93915.38;;;28.01
15701;BMP180;7950;42.744;23.174;2023-08-01T09:12:34;93910.13;;;28.15
15701;BMP180;7950;42.744;23.174;2023-08-01T09:15:06;93913.63;;;28.19
15701;BMP180;7950;42.744;23.174;2023-08-01T09:17:35;93908.22;;;28.19
15701;BMP180;7950;42.744;23.174;2023-08-01T09:20:05;93907.13;;;28.24
15701;BMP180;7950;42.744;23.174;2023-08-01T09:22:43;93904.09;;;28.29
15701;BMP180;7950;42.744;23.174;2023-08-01T09:25:12;93892.38;;;28.54
15701;BMP180;7950;42.744;23.174;2023-08-01T09:27:41;93895.59;;;28.70
15701;BMP180;7950;42.744;23.174;2023-08-01T09:30:13;93895.31;;;28.89
15701;BMP180;7950;42.744;23.174;2023-08-01T09:32:52;93891.59;;;29.08
15701;BMP180;7950;42.744;23.174;2023-08-01T09:35:21;93891.31;;;29.30
15701;BMP180;7950;42.744;23.174;2023-08-01T09:37:50;93889.47;;;29.56
15701;BMP180;7950;42.744;23.174;2023-08-01T09:40:19;93893.44;;;29.76
15701;BMP180;7950;42.744;23.174;2023-08-01T09:42:48;93888.06;;;29.93
15701;BMP180;7950;42.744;23.174;2023-08-01T09:45:19;93875.31;;;30.01
15701;BMP180;7950;42.744;23.174;2023-08-01T09:47:47;93877.69;;;30.13
15701;BMP180;7950;42.744;23.174;2023-08-01T09:50:21;93885.06;;;30.16
15701;BMP180;7950;42.744;23.174;2023-08-01T09:52:50;93879.59;;;30.02
15701;BMP180;7950;42.744;23.174;2023-08-01T09:55:28;93861.81;;;29.94
15701;BMP180;7950;42.744;23.174;2023-08-01T09:58:00;93862.56;;;29.87
15701;BMP180;7950;42.744;23.174;2023-08-01T10:00:30;93859.09;;;30.01
15701;BMP180;7950;42.744;23.174;2023-08-01T10:03:00;93851.38;;;30.06
15701;BMP180;7950;42.744;23.174;2023-08-01T10:05:32;93849.47;;;30.07
15701;BMP180;7950;42.744;23.174;2023-08-01T10:08:02;93849.88;;;30.16
15701;BMP180;7950;42.744;23.174;2023-08-01T10:10:31;93841.38;;;30.21
15701;BMP180;7950;42.744;23.174;2023-08-01T10:13:01;93834.78;;;30.25
15701;BMP180;7950;42.744;23.174;2023-08-01T10:15:32;93836.38;;;30.26
15701;BMP180;7950;42.744;23.174;2023-08-01T10:18:01;93829.78;;;30.38
15701;BMP180;7950;42.744;23.174;2023-08-01T10:20:33;93831.72;;;30.20
15701;BMP180;7950;42.744;23.174;2023-08-01T10:23:04;93824.72;;;29.87
15701;BMP180;7950;42.744;23.174;2023-08-01T10:25:33;93822.00;;;29.80
15701;BMP180;7950;42.744;23.174;2023-08-01T10:28:03;93819.22;;;29.56
15701;BMP180;7950;42.744;23.174;2023-08-01T10:30:33;93820.44;;;29.69
15701;BMP180;7950;42.744;23.174;2023-08-01T10:33:02;93818.50;;;29.73
15701;BMP180;7950;42.744;23.174;2023-08-01T10:35:35;93815.44;;;29.92
15701;BMP180;7950;42.744;23.174;2023-08-01T10:38:06;93808.09;;;30.10
15701;BMP180;7950;42.744;23.174;2023-08-01T10:40:37;93813.16;;;30.29
15701;BMP180;7950;42.744;23.174;2023-08-01T10:43:06;93813.91;;;30.43
15701;BMP180;7950;42.744;23.174;2023-08-01T10:45:36;93815.09;;;30.25
15701;BMP180;7950;42.744;23.174;2023-08-01T10:48:09;93807.75;;;30.22
15701;BMP180;7950;42.744;23.174;2023-08-01T10:50:38;93805.81;;;30.15
15701;BMP180;7950;42.744;23.174;2023-08-01T10:53:09;93799.25;;;30.13
15701;BMP180;7950;42.744;23.174;2023-08-01T10:55:42;93790.75;;;30.14
15701;BMP180;7950;42.744;23.174;2023-08-01T10:58:12;93786.50;;;30.24
15701;BMP180;7950;42.744;23.174;2023-08-01T11:00:43;93774.50;;;30.21
15701;BMP180;7950;42.744;23.174;2023-08-01T11:03:11;93783.00;;;30.16
15701;BMP180;7950;42.744;23.174;2023-08-01T11:05:40;93773.38;;;30.22
15701;BMP180;7950;42.744;23.174;2023-08-01T11:08:08;93773.72;;;30.35
15701;BMP180;7950;42.744;23.174;2023-08-01T11:10:38;93771.41;;;30.40
15701;BMP180;7950;42.744;23.174;2023-08-01T11:13:11;93763.66;;;30.46
15701;BMP180;7950;42.744;23.174;2023-08-01T11:15:39;93766.31;;;30.74
15701;BMP180;7950;42.744;23.174;2023-08-01T11:18:09;93755.00;;;30.96
15701;BMP180;7950;42.744;23.174;2023-08-01T11:20:39;93758.44;;;31.14
15701;BMP180;7950;42.744;23.174;2023-08-01T11:23:08;93745.66;;;31.22
15701;BMP180;7950;42.744;23.174;2023-08-01T11:25:41;93752.59;;;31.19
15701;BMP180;7950;42.744;23.174;2023-08-01T11:28:13;93754.13;;;31.24
15701;BMP180;7950;42.744;23.174;2023-08-01T11:30:42;93742.59;;;31.06
15701;BMP180;7950;42.744;23.174;2023-08-01T11:33:19;93739.59;;;30.90
15701;BMP180;7950;42.744;23.174;2023-08-01T11:35:51;93738.78;;;30.93
15701;BMP180;7950;42.744;23.174;2023-08-01T11:38:22;93736.06;;;30.93
15701;BMP180;7950;42.744;23.174;2023-08-01T11:40:53;93737.63;;;30.97
15701;BMP180;7950;42.744;23.174;2023-08-01T11:43:21;93737.66;;;30.87
15701;BMP180;7950;42.744;23.174;2023-08-01T11:45:51;93735.38;;;30.75
15701;BMP180;7950;42.744;23.174;2023-08-01T11:48:23;93732.59;;;30.96
15701;BMP180;7950;42.744;23.174;2023-08-01T11:50:57;93736.38;;;31.12
15701;BMP180;7950;42.744;23.174;2023-08-01T11:53:27;93732.88;;;31.15
15701;BMP180;7950;42.744;23.174;2023-08-01T11:55:56;93733.28;;;31.14
15701;BMP180;7950;42.744;23.174;2023-08-01T11:58:29;93720.78;;;31.34
15701;BMP180;7950;42.744;23.174;2023-08-01T12:01:05;93710.25;;;31.46
15701;BMP180;7950;42.744;23.174;2023-08-01T12:03:45;93701.25;;;31.60
15701;BMP180;7950;42.744;23.174;2023-08-01T12:06:14;93702.69;;;31.75
15701;BMP180;7950;42.744;23.174;2023-08-01T12:08:44;93691.81;;;31.82
15701;BMP180;7950;42.744;23.174;2023-08-01T12:11:21;93697.19;;;31.89
15701;BMP180;7950;42.744;23.174;2023-08-01T12:14:07;93693.44;;;31.69
15701;BMP180;7950;42.744;23.174;2023-08-01T12:16:38;93697.41;;;31.57
15701;BMP180;7950;42.744;23.174;2023-08-01T12:19:09;93695.91;;;31.49
15701;BMP180;7950;42.744;23.174;2023-08-01T12:21:37;93688.50;;;31.57
15701;BMP180;7950;42.744;23.174;2023-08-01T12:24:06;93695.06;;;31.56
15701;BMP180;7950;42.744;23.174;2023-08-01T12:26:34;93688.31;;;31.27
15701;BMP180;7950;42.744;23.174;2023-08-01T12:29:03;93689.88;;;31.21
15701;BMP180;7950;42.744;23.174;2023-08-01T12:31:32;93689.09;;;31.24
15701;BMP180;7950;42.744;23.174;2023-08-01T12:34:00;93693.66;;;31.41
15701;BMP180;7950;42.744;23.174;2023-08-01T12:36:31;93690.56;;;31.39
15701;BMP180;7950;42.744;23.174;2023-08-01T12:38:59;93682.03;;;31.44
15701;BMP180;7950;42.744;23.174;2023-08-01T12:41:28;93678.47;;;31.50
15701;BMP180;7950;42.744;23.174;2023-08-01T12:43:56;93663.69;;;31.62
15701;BMP180;7950;42.744;23.174;2023-08-01T12:46:25;93664.28;;;31.83
15701;BMP180;7950;42.744;23.174;2023-08-01T12:48:55;93661.44;;;31.97
15701;BMP180;7950;42.744;23.174;2023-08-01T12:51:23;93671.16;;;31.95
15701;BMP180;7950;42.744;23.174;2023-08-01T12:53:53;93661.31;;;32.11
15701;BMP180;7950;42.744;23.174;2023-08-01T12:56:22;93662.06;;;32.12
15701;BMP180;7950;42.744;23.174;2023-08-01T12:58:50;93651.78;;;31.96
15701;BMP180;7950;42.744;23.174;2023-08-01T13:01:19;93652.34;;;31.74
15701;BMP180;7950;42.744;23.174;2023-08-01T13:03:47;93646.19;;;31.70
15701;BMP180;7950;42.744;23.174;2023-08-01T13:06:16;93637.00;;;31.57
15701;BMP180;7950;42.744;23.174;2023-08-01T13:08:45;93647.03;;;31.60
15701;BMP180;7950;42.744;23.174;2023-08-01T13:11:15;93631.53;;;31.60
15701;BMP180;7950;42.744;23.174;2023-08-01T13:13:44;93628.47;;;31.55
15701;BMP180;7950;42.744;23.174;2023-08-01T13:16:13;93633.78;;;31.69
15701;BMP180;7950;42.744;23.174;2023-08-01T13:18:41;93632.19;;;31.78
15701;BMP180;7950;42.744;23.174;2023-08-01T13:21:13;93626.22;;;31.94
15701;BMP180;7950;42.744;23.174;2023-08-01T13:23:42;93628.81;;;32.04
15701;BMP180;7950;42.744;23.174;2023-08-01T13:26:10;93627.13;;;32.17
15701;BMP180;7950;42.744;23.174;2023-08-01T13:28:40;93621.38;;;32.12
15701;BMP180;7950;42.744;23.174;2023-08-01T13:31:09;93628.03;;;32.04
15701;BMP180;7950;42.744;23.174;2023-08-01T13:33:37;93612.75;;;31.83
15701;BMP180;7950;42.744;23.174;2023-08-01T13:36:06;93608.66;;;31.65
15701;BMP180;7950;42.744;23.174;2023-08-01T13:38:34;93615.63;;;31.66
15701;BMP180;7950;42.744;23.174;2023-08-01T13:41:03;93615.94;;;31.71
15701;BMP180;7950;42.744;23.174;2023-08-01T13:43:32;93602.84;;;31.63
15701;BMP180;7950;42.744;23.174;2023-08-01T13:46:11;93605.84;;;31.75
15701;BMP180;7950;42.744;23.174;2023-08-01T13:48:55;93600.31;;;31.86
15701;BMP180;7950;42.744;23.174;2023-08-01T13:51:24;93600.63;;;31.95
15701;BMP180;7950;42.744;23.174;2023-08-01T13:53:52;93606.56;;;31.83
15701;BMP180;7950;42.744;23.174;2023-08-01T13:56:22;93601.94;;;31.80
15701;BMP180;7950;42.744;23.174;2023-08-01T13:58:51;93598.22;;;31.60
15701;BMP180;7950;42.744;23.174;2023-08-01T14:01:21;93597.00;;;31.68
15701;BMP180;7950;42.744;23.174;2023-08-01T14:03:50;93597.44;;;31.63
15701;BMP180;7950;42.744;23.174;2023-08-01T14:06:18;93582.72;;;31.60
15701;BMP180;7950;42.744;23.174;2023-08-01T14:08:47;93584.34;;;31.51
15701;BMP180;7950;42.744;23.174;2023-08-01T14:11:17;93589.00;;;31.54
15701;BMP180;7950;42.744;23.174;2023-08-01T14:13:45;93592.56;;;31.44
15701;BMP180;7950;42.744;23.174;2023-08-01T14:16:13;93585.09;;;31.58
15701;BMP180;7950;42.744;23.174;2023-08-01T14:18:44;93588.06;;;31.71
15701;BMP180;7950;42.744;23.174;2023-08-01T14:21:13;93584.31;;;31.58